Time;durP1;ratioP1;P1;durP2;ratioP2;P2;SDS_P1;SDS_P2;PMS_P1;PMS_P2;Temp;Humidity;BMP_temperature;BMP_pressure;BME280_temperature;BME280_humidity;BME280_pressure;Samples;Min_cycle;Max_cycle;Signal;HPM_P1;HPM_P2
2021/05/01 00:03:59;;;;;;;73.95;33.00;;;;;;;6.94;70.46;100193.28;10266288;28;20255;-71
2021/05/01 00:09:02;;;;;;;77.00;32.20;;;;;;;6.90;70.67;100186.44;10269378;28;20235;-71
2021/05/01 00:14:05;;;;;;;76.97;34.15;;;;;;;6.93;70.71;100180.91;10279478;28;20720;-71
2021/05/01 00:19:07;;;;;;;70.85;33.03;;;;;;;6.88;70.94;100173.19;10327577;28;20227;-71
2021/05/01 00:24:10;;;;;;;76.63;34.80;;;;;;;6.79;70.99;100166.63;10314390;28;20226;-70
2021/05/01 00:29:12;;;;;;;67.13;31.65;;;;;;;6.73;71.18;100167.06;10314844;28;20274;-71
2021/05/01 00:34:14;;;;;;;70.55;33.75;;;;;;;6.64;71.30;100165.03;10312760;28;20243;-71
2021/05/01 00:39:17;;;;;;;69.53;32.70;;;;;;;6.63;71.29;100157.97;10315016;28;20238;-71
2021/05/01 00:44:19;;;;;;;70.50;32.90;;;;;;;6.57;71.30;100166.41;10313525;28;20540;-71
2021/05/01 00:49:21;;;;;;;68.45;33.67;;;;;;;6.45;71.50;100169.91;10312185;28;20256;-71
2021/05/01 00:54:23;;;;;;;68.32;31.23;;;;;;;6.46;71.69;100158.28;10311286;28;20247;-71
2021/05/01 00:59:26;;;;;;;72.70;32.97;;;;;;;6.41;72.11;100147.91;10315363;28;20242;-71
2021/05/01 01:04:28;;;;;;;77.32;35.97;;;;;;;6.37;72.23;100151.75;10310485;28;20261;-71
2021/05/01 01:09:31;;;;;;;72.72;32.47;;;;;;;6.30;72.32;100151.28;10311338;28;20269;-71
2021/05/01 01:14:33;;;;;;;67.50;31.92;;;;;;;6.28;72.78;100139.00;10302459;28;20246;-71
2021/05/01 01:19:37;;;;;;;72.28;32.83;;;;;;;6.22;72.55;100134.94;10273977;28;20434;-71
2021/05/01 01:24:41;;;;;;;70.90;33.60;;;;;;;6.15;72.83;100136.31;10270877;28;20937;-72
2021/05/01 01:29:43;;;;;;;74.82;35.25;;;;;;;6.19;72.96;100143.16;10272703;28;20234;-71
2021/05/01 01:34:46;;;;;;;71.95;33.80;;;;;;;6.17;72.97;100150.38;10273046;28;20236;-71
2021/05/01 01:39:48;;;;;;;71.95;32.88;;;;;;;6.07;73.34;100151.97;10271068;28;20240;-71
2021/05/01 01:44:50;;;;;;;69.93;32.38;;;;;;;6.02;73.42;100143.41;10270026;28;20236;-71
2021/05/01 01:49:52;;;;;;;72.22;32.03;;;;;;;5.95;73.69;100140.28;10273214;28;20243;-71
2021/05/01 01:54:55;;;;;;;70.32;32.67;;;;;;;5.96;73.53;100139.34;10273730;28;20238;-71
2021/05/01 01:59:57;;;;;;;77.75;35.03;;;;;;;5.86;73.53;100135.56;10273003;28;20274;-71
2021/05/01 02:04:59;;;;;;;82.05;35.25;;;;;;;5.86;73.58;100140.91;10271035;28;20235;-71
2021/05/01 02:10:03;;;;;;;76.10;35.22;;;;;;;5.84;73.47;100142.78;10285251;28;20270;-71
2021/05/01 02:15:11;;;;;;;70.10;33.70;;;;;;;5.68;73.50;100142.97;10286026;28;20243;-71
2021/05/01 02:20:17;;;;;;;75.75;34.28;;;;;;;5.56;73.48;100136.59;10311819;28;20265;-71
2021/05/01 02:25:20;;;;;;;74.07;33.60;;;;;;;5.23;73.01;100152.91;10310212;28;20247;-71
2021/05/01 02:30:24;;;;;;;67.85;31.00;;;;;;;5.03;73.72;100136.34;10287186;28;20260;-71
2021/05/01 02:35:28;;;;;;;73.15;34.08;;;;;;;5.01;73.55;100126.75;10291076;28;20766;-71
2021/05/01 02:40:32;;;;;;;72.23;33.23;;;;;;;5.11;73.93;100132.38;10288507;28;20236;-71
2021/05/01 02:45:35;;;;;;;67.63;32.00;;;;;;;5.19;73.61;100130.09;10289947;28;20231;-71
2021/05/01 02:50:37;;;;;;;65.60;31.40;;;;;;;5.06;72.96;100138.81;10288948;28;21889;-71
2021/05/01 02:55:39;;;;;;;64.20;31.40;;;;;;;5.00;73.10;100138.38;10284668;28;20251;-71
2021/05/01 03:00:41;;;;;;;68.72;32.42;;;;;;;5.15;73.08;100131.22;10293735;28;20647;-71
2021/05/01 03:05:43;;;;;;;71.30;32.35;;;;;;;5.12;72.92;100121.59;10293450;28;20620;-71
2021/05/01 03:10:46;;;;;;;74.15;33.65;;;;;;;5.31;72.80;100115.13;10299558;28;20231;-71
2021/05/01 03:15:49;;;;;;;70.63;31.75;;;;;;;5.41;72.30;100114.47;10287747;28;20243;-71
2021/05/01 03:20:52;;;;;;;70.70;30.80;;;;;;;5.33;72.24;100110.56;10267574;28;20689;-71
2021/05/01 03:25:55;;;;;;;65.00;31.60;;;;;;;5.30;72.59;100108.97;10269651;28;20318;-71
2021/05/01 03:30:56;;;;;;;68.88;31.30;;;;;;;5.55;71.81;100105.56;10268672;28;20239;-71
2021/05/01 03:35:58;;;;;;;59.10;29.02;;;;;;;5.53;71.68;100096.81;10268053;28;20239;-71
2021/05/01 03:41:01;;;;;;;66.03;30.42;;;;;;;5.61;71.78;100107.00;10163880;28;20717;-71
2021/05/01 03:46:03;;;;;;;62.53;29.00;;;;;;;5.70;71.85;100093.94;10149357;28;20229;-71
2021/05/01 03:51:06;;;;;;;57.55;27.92;;;;;;;5.74;71.69;100094.59;10143118;28;20238;-71
2021/05/01 03:56:08;;;;;;;60.85;29.40;;;;;;;5.77;71.85;100099.72;10156958;28;20252;-71
2021/05/01 04:01:10;;;;;;;65.78;29.75;;;;;;;5.69;72.13;100099.34;10141521;28;20243;-71
2021/05/01 04:06:12;;;;;;;63.53;30.45;;;;;;;5.52;72.36;100097.78;10141058;28;20696;-71
2021/05/01 04:11:15;;;;;;;61.60;28.73;;;;;;;5.47;72.70;100098.06;10142806;28;20275;-71
2021/05/01 04:16:18;;;;;;;66.82;31.25;;;;;;;5.67;72.63;100114.56;10162955;28;20241;-71
2021/05/01 04:21:20;;;;;;;65.05;31.05;;;;;;;5.80;72.62;100109.31;10179749;28;20242;-71
2021/05/01 04:26:23;;;;;;;65.13;31.13;;;;;;;5.87;72.38;100097.28;10178077;28;20239;-71
2021/05/01 04:31:25;;;;;;;51.95;25.20;;;;;;;5.78;71.35;100111.22;10180261;28;20241;-72
2021/05/01 04:36:27;;;;;;;54.00;28.02;;;;;;;5.71;71.59;100110.78;10179353;28;20254;-71
2021/05/01 04:41:30;;;;;;;64.10;31.05;;;;;;;5.84;71.80;100105.47;10181163;28;20297;-71
2021/05/01 04:46:32;;;;;;;66.18;31.20;;;;;;;6.08;71.71;100103.00;10177831;28;20260;-71
2021/05/01 04:51:35;;;;;;;62.53;29.77;;;;;;;6.23;71.21;100120.66;10177917;28;20231;-71
2021/05/01 04:56:39;;;;;;;57.17;27.63;;;;;;;5.82;71.74;100132.25;10176846;28;20919;-71
2021/05/01 05:01:40;;;;;;;62.90;30.33;;;;;;;5.84;71.55;100126.81;10184447;28;20269;-71
2021/05/01 05:06:43;;;;;;;68.05;31.13;;;;;;;6.03;71.80;100124.63;10186778;28;20246;-71
2021/05/01 05:11:45;;;;;;;62.72;27.83;;;;;;;5.99;71.74;100120.47;10201259;28;20255;-71
2021/05/01 05:16:47;;;;;;;62.85;30.55;;;;;;;6.14;72.14;100123.94;10159606;28;20247;-71
2021/05/01 05:21:49;;;;;;;60.03;29.55;;;;;;;6.38;72.02;100135.63;10120292;28;21703;-70
2021/05/01 05:26:52;;;;;;;55.58;27.77;;;;;;;6.51;71.68;100134.81;10117566;28;20236;-71
2021/05/01 05:31:54;;;;;;;55.75;26.42;;;;;;;6.59;72.03;100148.47;10103379;28;20811;-71
2021/05/01 05:36:56;;;;;;;52.50;26.15;;;;;;;6.67;71.79;100151.47;10102260;28;20254;-71
2021/05/01 05:41:59;;;;;;;53.53;26.77;;;;;;;6.68;71.56;100166.53;10103221;28;20255;-70
2021/05/01 05:47:01;;;;;;;50.78;26.15;;;;;;;6.39;72.28;100160.50;10103426;28;20256;-70
2021/05/01 05:52:04;;;;;;;54.03;24.88;;;;;;;6.31;72.05;100168.16;10100656;28;20243;-70
2021/05/01 05:57:08;;;;;;;52.80;26.58;;;;;;;6.43;72.64;100153.16;10101618;28;20247;-70
2021/05/01 06:02:15;;;;;;;52.80;26.63;;;;;;;6.60;74.11;100161.69;10101558;28;20345;-70
2021/05/01 06:07:22;;;;;;;57.70;25.98;;;;;;;6.50;74.15;100165.97;10101631;28;20263;-70
2021/05/01 06:12:27;;;;;;;53.80;27.73;;;;;;;6.26;74.68;100170.28;10105532;28;20240;-70
2021/05/01 06:17:29;;;;;;;53.15;25.85;;;;;;;6.03;75.29;100166.44;10172094;28;20243;-70
2021/05/01 06:22:32;;;;;;;58.22;27.92;;;;;;;6.11;76.13;100172.13;10264376;28;20589;-71
2021/05/01 06:27:35;;;;;;;54.22;25.13;;;;;;;6.24;76.75;100169.53;10312965;28;20243;-71
2021/05/01 06:32:38;;;;;;;63.97;29.10;;;;;;;6.47;76.39;100175.97;10310895;28;20243;-70
2021/05/01 06:37:41;;;;;;;75.32;30.63;;;;;;;6.50;76.43;100181.09;10310448;28;20305;-71
2021/05/01 06:42:49;;;;;;;67.88;32.03;;;;;;;6.53;76.66;100172.91;10310231;28;20234;-71
2021/05/01 06:47:53;;;;;;;75.22;34.00;;;;;;;6.94;76.51;100178.13;10310993;28;20234;-71
2021/05/01 06:52:57;;;;;;;73.10;32.45;;;;;;;7.11;76.61;100184.13;10310796;28;20681;-71
2021/05/01 06:58:03;;;;;;;76.32;31.92;;;;;;;7.02;75.98;100183.78;10199774;28;20628;-71
2021/05/01 07:03:07;;;;;;;70.30;31.45;;;;;;;7.49;77.03;100187.59;10183670;28;20250;-71
2021/05/01 07:08:12;;;;;;;76.03;33.90;;;;;;;8.21;75.30;100173.47;10178793;28;20247;-71
2021/05/01 07:13:16;;;;;;;75.13;34.30;;;;;;;8.54;73.89;100180.81;10122526;28;21567;-70
2021/05/01 07:18:22;;;;;;;68.03;31.52;;;;;;;8.31;72.16;100182.53;10102757;28;20251;-70
2021/05/01 07:23:24;;;;;;;71.97;33.70;;;;;;;8.28;73.29;100177.41;10101359;28;20243;-70
2021/05/01 07:28:35;;;;;;;72.85;32.05;;;;;;;8.18;73.67;100185.25;10107297;28;20236;-70
2021/05/01 07:33:43;;;;;;;67.65;29.40;;;;;;;8.71;73.62;100181.34;10174820;28;20281;-70
2021/05/01 07:38:45;;;;;;;53.10;27.77;;;;;;;8.83;72.00;100164.34;10182258;28;20269;-70
2021/05/01 07:43:50;;;;;;;52.45;27.75;;;;;;;9.22;73.48;100162.22;10180522;28;20235;-70
2021/05/01 07:48:52;;;;;;;58.45;28.13;;;;;;;9.47;70.21;100167.31;10183928;28;20292;-69
2021/05/01 07:53:55;;;;;;;58.70;28.77;;;;;;;9.83;71.11;100162.66;10186295;28;20249;-69
2021/05/01 07:59:00;;;;;;;65.32;28.92;;;;;;;10.51;71.34;100181.28;10147636;28;20248;-70
2021/05/01 08:04:02;;;;;;;52.60;26.08;;;;;;;9.98;67.53;100175.81;10152807;28;20235;-70
2021/05/01 08:09:05;;;;;;;53.08;26.20;;;;;;;9.57;66.56;100178.19;10124059;28;20240;-70
2021/05/01 08:14:08;;;;;;;48.30;25.63;;;;;;;10.13;69.18;100179.94;10141779;28;20244;-70
2021/05/01 08:19:10;;;;;;;46.17;22.67;;;;;;;9.49;66.80;100172.59;10199994;28;20242;-70
2021/05/01 08:24:12;;;;;;;40.38;21.13;;;;;;;9.04;66.20;100192.16;10243138;28;20247;-70
2021/05/01 08:29:14;;;;;;;40.28;21.27;;;;;;;8.63;67.97;100198.00;10227105;28;20232;-70
2021/05/01 08:34:16;;;;;;;46.35;21.90;;;;;;;9.47;66.43;100195.97;10234048;28;20244;-70
2021/05/01 08:39:18;;;;;;;41.65;19.80;;;;;;;9.61;62.73;100197.56;10235088;28;20923;-69
2021/05/01 08:44:21;;;;;;;42.40;22.27;;;;;;;9.98;63.48;100202.66;10257460;28;20258;-70
2021/05/01 08:49:23;;;;;;;44.22;23.52;;;;;;;9.97;62.40;100191.06;10265841;28;20239;-70
2021/05/01 08:54:25;;;;;;;47.88;24.40;;;;;;;9.90;62.51;100188.03;10273347;28;20247;-70
2021/05/01 08:59:28;;;;;;;47.42;23.92;;;;;;;9.51;63.24;100190.22;10262816;28;20263;-71
2021/05/01 09:04:44;;;;;;;38.47;20.17;;;;;;;9.16;64.15;100200.19;10281273;28;20242;-71
2021/05/01 09:09:53;;;;;;;36.67;19.52;;;;;;;9.60;63.89;100206.56;10273119;28;20247;-71
2021/05/01 09:14:57;;;;;;;37.72;18.95;;;;;;;9.06;63.69;100216.16;10285885;28;20235;-70
2021/05/01 09:20:08;;;;;;;34.58;18.42;;;;;;;9.12;63.37;100215.66;10311694;28;20241;-70
2021/05/01 09:25:10;;;;;;;33.97;19.67;;;;;;;9.29;63.25;100217.88;10310315;28;20227;-71
2021/05/01 09:30:30;;;;;;;36.55;18.42;;;;;;;9.46;61.53;100224.63;10313325;28;20659;-70
2021/05/01 09:35:33;;;;;;;40.20;20.10;;;;;;;9.23;62.31;100228.25;10301491;28;20245;-70
2021/05/01 09:40:35;;;;;;;44.75;21.75;;;;;;;8.54;64.17;100223.66;10242139;28;20245;-70
2021/05/01 09:45:38;;;;;;;43.38;21.35;;;;;;;8.54;65.27;100215.63;10233761;28;20232;-70
2021/05/01 09:50:41;;;;;;;44.25;21.92;;;;;;;8.30;65.90;100220.94;10283936;28;20239;-70
2021/05/01 09:55:48;;;;;;;42.17;21.83;;;;;;;8.59;65.51;100216.13;10264321;28;20233;-70
2021/05/01 10:00:53;;;;;;;38.80;19.88;;;;;;;9.23;63.97;100210.31;10269713;28;20239;-70
2021/05/01 10:05:59;;;;;;;40.35;20.02;;;;;;;9.53;62.87;100203.53;10269313;28;20240;-70
2021/05/01 10:11:08;;;;;;;38.22;20.05;;;;;;;9.40;62.29;100203.63;10181529;28;20236;-70
2021/05/01 10:16:22;;;;;;;45.10;20.70;;;;;;;9.97;60.17;100200.97;10194692;28;20266;-70
2021/05/01 10:21:25;;;;;;;36.17;20.42;;;;;;;10.04;59.28;100207.50;10203806;28;20249;-69
2021/05/01 10:26:40;;;;;;;36.58;19.70;;;;;;;10.46;57.28;100200.44;10215060;28;20254;-70
2021/05/01 10:31:52;;;;;;;39.92;21.13;;;;;;;10.56;58.17;100192.47;10241897;28;20235;-70
2021/05/01 10:36:59;;;;;;;36.25;20.27;;;;;;;10.45;56.40;100190.69;10310773;28;20286;-69
2021/05/01 10:42:03;;;;;;;40.53;23.02;;;;;;;10.52;57.58;100186.50;10300865;28;20239;-69
2021/05/01 10:47:10;;;;;;;38.30;20.75;;;;;;;9.73;58.01;100193.88;10237493;28;20238;-69
2021/05/01 10:52:37;;;;;;;38.65;20.27;;;;;;;9.60;59.18;100190.47;10244832;28;20247;-70
2021/05/01 10:57:40;;;;;;;42.78;21.88;;;;;;;10.40;58.03;100190.22;10232616;28;21369;-70
2021/05/01 11:02:44;;;;;;;38.58;20.95;;;;;;;11.40;53.74;100193.31;10229453;28;21419;-70
2021/05/01 11:07:51;;;;;;;35.58;20.58;;;;;;;12.56;52.00;100192.78;10230673;28;20311;-70
2021/05/01 11:12:55;;;;;;;36.70;19.85;;;;;;;14.44;46.18;100186.41;10229178;28;20600;-70
2021/05/01 11:18:06;;;;;;;33.33;20.30;;;;;;;15.30;44.47;100188.44;10273548;28;20236;-70
2021/05/01 11:23:13;;;;;;;32.70;19.52;;;;;;;16.25;42.96;100172.09;10264137;28;20235;-70
2021/05/01 11:28:19;;;;;;;31.65;16.35;;;;;;;14.62;42.25;100194.53;10246211;28;20240;-70
2021/05/01 11:33:23;;;;;;;29.95;19.35;;;;;;;14.87;45.26;100179.38;10246277;28;20231;-70
2021/05/01 11:38:28;;;;;;;32.85;18.90;;;;;;;16.12;40.58;100167.16;10268126;28;20243;-70
2021/05/01 11:43:31;;;;;;;35.35;19.70;;;;;;;13.72;44.33;100169.25;10256324;28;20323;-72
2021/05/01 11:48:39;;;;;;;30.55;18.83;;;;;;;16.44;40.62;100162.84;10255305;28;20239;-72
2021/05/01 11:53:44;;;;;;;31.48;20.15;;;;;;;17.82;37.17;100155.47;10242962;28;20600;-72
2021/05/01 11:58:48;;;;;;;29.33;16.83;;;;;;;16.68;36.19;100152.00;10247693;28;20240;-72
2021/05/01 12:03:56;;;;;;;30.15;18.52;;;;;;;15.50;38.19;100153.06;10244133;28;21471;-72
2021/05/01 12:09:03;;;;;;;28.00;18.15;;;;;;;17.18;35.78;100136.53;10273121;28;20778;-72
2021/05/01 12:14:10;;;;;;;25.05;16.80;;;;;;;17.28;34.25;100133.63;10264694;28;20266;-72
2021/05/01 12:19:24;;;;;;;24.10;16.83;;;;;;;15.30;39.71;100139.72;10268882;28;20247;-73
2021/05/01 12:24:27;;;;;;;23.90;15.88;;;;;;;13.59;41.55;100155.25;10330425;28;20242;-72
2021/05/01 12:29:34;;;;;;;24.67;13.70;;;;;;;15.54;35.54;100144.44;10314923;28;20253;-72
2021/05/01 12:35:02;;;;;;;22.75;14.45;;;;;;;15.31;35.98;100127.91;10314038;28;21398;-72
2021/05/01 12:40:08;;;;;;;22.42;14.50;;;;;;;14.96;35.78;100134.28;10314002;28;20230;-71
2021/05/01 12:45:32;;;;;;;21.23;14.40;;;;;;;15.54;35.13;100130.06;10300504;28;20232;-72
2021/05/01 12:50:36;;;;;;;21.85;14.00;;;;;;;16.21;34.99;100117.41;10245291;28;20244;-72
2021/05/01 12:56:19;;;;;;;18.70;12.50;;;;;;;16.57;34.29;100104.38;10235977;28;21085;-71
2021/05/01 13:01:23;;;;;;;21.17;13.38;;;;;;;16.00;33.22;100107.03;10248377;28;20599;-71
2021/05/01 13:06:25;;;;;;;21.92;14.32;;;;;;;14.48;36.42;100093.25;10258207;28;20240;-73
2021/05/01 13:11:30;;;;;;;17.88;12.52;;;;;;;14.38;35.87;100089.75;10248335;28;20236;-73
2021/05/01 13:17:06;;;;;;;16.95;11.88;;;;;;;13.83;36.48;100084.50;10282298;28;20239;-71
2021/05/01 13:22:09;;;;;;;18.55;12.02;;;;;;;16.32;32.32;100060.19;10309982;28;20897;-71
2021/05/01 13:27:13;;;;;;;13.73;10.32;;;;;;;15.95;30.02;100066.03;10310075;28;20273;-71
2021/05/01 13:32:16;;;;;;;15.02;10.15;;;;;;;17.76;29.96;100061.13;10312314;28;20242;-71
2021/05/01 13:37:19;;;;;;;17.25;9.93;;;;;;;15.24;32.62;100057.34;10313433;28;20250;-71
2021/05/01 13:42:23;;;;;;;14.23;10.52;;;;;;;14.65;33.37;100061.75;10313689;28;20712;-72
2021/05/01 13:47:27;;;;;;;17.17;10.20;;;;;;;14.92;33.46;100055.34;10312116;28;20603;-71
2021/05/01 13:52:30;;;;;;;14.07;9.93;;;;;;;14.80;33.14;100043.09;10311025;28;20261;-72
2021/05/01 13:57:33;;;;;;;15.93;10.30;;;;;;;14.87;32.62;100040.63;10313020;28;20253;-71
2021/05/01 14:02:36;;;;;;;15.75;9.75;;;;;;;14.42;32.47;100045.19;10310722;28;20239;-71
2021/05/01 14:07:39;;;;;;;14.48;9.00;;;;;;;13.90;33.82;100059.44;10313722;28;20285;-71
2021/05/01 14:12:42;;;;;;;11.80;9.48;;;;;;;14.19;33.88;100035.88;10311796;28;20251;-71
2021/05/01 14:17:44;;;;;;;14.05;9.70;;;;;;;16.03;31.68;100038.97;10276787;28;20740;-71
2021/05/01 14:22:48;;;;;;;12.10;8.68;;;;;;;15.64;30.43;100025.22;10271253;28;20265;-72
2021/05/01 14:27:52;;;;;;;11.77;8.63;;;;;;;14.09;33.18;100027.84;10272564;28;20744;-71
2021/05/01 14:32:53;;;;;;;15.82;9.73;;;;;;;16.26;31.44;100024.75;10270185;28;20235;-71
2021/05/01 14:37:56;;;;;;;17.33;10.05;;;;;;;16.33;32.15;100034.75;10272033;28;20235;-71
2021/05/01 14:42:58;;;;;;;15.70;10.00;;;;;;;16.93;31.33;100036.19;10271679;28;20724;-71
2021/05/01 14:48:13;;;;;;;12.73;8.98;;;;;;;17.70;28.74;100025.50;10271583;28;20247;-72
2021/05/01 14:53:18;;;;;;;15.63;9.70;;;;;;;16.50;31.58;100027.44;10271528;28;20235;-72
2021/05/01 14:58:27;;;;;;;15.65;9.43;;;;;;;15.70;32.67;100033.50;10272917;28;21368;-72
2021/05/01 15:03:34;;;;;;;14.48;9.23;;;;;;;15.10;33.16;100030.06;10271952;28;20737;-72
2021/05/01 15:08:35;;;;;;;13.90;9.40;;;;;;;14.41;33.09;100034.56;10270350;28;20235;-71
2021/05/01 15:13:39;;;;;;;14.75;8.80;;;;;;;14.50;34.09;100020.94;10270827;28;20258;-71
2021/05/01 15:18:43;;;;;;;13.50;8.05;;;;;;;14.01;33.46;100027.78;10310344;28;20330;-71
2021/05/01 15:23:47;;;;;;;10.88;8.60;;;;;;;13.73;34.61;100027.03;10310062;28;20341;-71
2021/05/01 15:28:53;;;;;;;14.05;9.70;;;;;;;14.75;32.85;100030.03;10308956;28;20246;-72
2021/05/01 15:33:56;;;;;;;11.65;8.70;;;;;;;16.15;31.12;100037.63;10308041;28;20242;-71
2021/05/01 15:38:58;;;;;;;15.30;8.80;;;;;;;14.53;32.42;100049.50;10309596;28;20301;-71
2021/05/01 15:44:01;;;;;;;11.48;8.32;;;;;;;15.31;32.04;100022.38;10308892;28;20318;-72
2021/05/01 15:49:03;;;;;;;10.63;7.82;;;;;;;17.21;29.16;100016.78;10307664;28;20345;-72
2021/05/01 15:54:05;;;;;;;10.80;7.13;;;;;;;15.79;30.84;100030.81;10217302;28;20238;-71
2021/05/01 15:59:09;;;;;;;11.82;7.50;;;;;;;14.43;32.54;100027.16;10307044;28;20797;-73
2021/05/01 16:04:11;;;;;;;9.05;7.38;;;;;;;14.37;31.86;100024.03;10306139;28;20285;-73
2021/05/01 16:09:13;;;;;;;9.93;7.43;;;;;;;14.81;32.20;100010.50;10307517;28;20235;-72
2021/05/01 16:14:15;;;;;;;10.02;7.25;;;;;;;14.99;32.29;100023.09;10302451;28;20242;-72
2021/05/01 16:19:19;;;;;;;8.82;7.38;;;;;;;14.56;32.76;100014.03;10267798;28;20235;-73
2021/05/01 16:24:21;;;;;;;13.10;7.88;;;;;;;12.99;35.07;100018.91;10269044;28;20231;-72
2021/05/01 16:29:24;;;;;;;9.85;6.45;;;;;;;13.48;34.97;100027.59;10268804;28;20239;-71
2021/05/01 16:34:26;;;;;;;9.60;7.18;;;;;;;13.04;35.16;100023.84;10246345;28;20235;-69
2021/05/01 16:39:28;;;;;;;10.85;6.70;;;;;;;13.84;34.38;100027.63;10259149;28;20240;-70
2021/05/01 16:44:32;;;;;;;9.63;6.63;;;;;;;14.40;34.76;100028.31;10265298;28;22302;-70
2021/05/01 16:49:35;;;;;;;10.23;6.80;;;;;;;13.79;34.23;100031.78;10268629;28;20251;-69
2021/05/01 16:54:37;;;;;;;8.23;6.55;;;;;;;13.35;35.23;100028.94;10269833;28;20793;-69
2021/05/01 16:59:40;;;;;;;9.30;6.55;;;;;;;12.73;35.85;100026.81;10274127;28;20310;-69
2021/05/01 17:04:42;;;;;;;11.57;6.65;;;;;;;13.02;35.45;100018.59;10271373;28;20867;-70
2021/05/01 17:09:44;;;;;;;10.98;6.68;;;;;;;12.88;37.07;100016.41;10271515;28;20255;-70
2021/05/01 17:14:47;;;;;;;10.07;6.95;;;;;;;12.91;36.65;100023.34;10271577;28;20782;-69
2021/05/01 17:19:49;;;;;;;15.55;8.00;;;;;;;12.95;35.94;100020.22;10278999;28;20248;-70
2021/05/01 17:24:51;;;;;;;8.02;6.20;;;;;;;12.91;35.81;100023.34;10265293;28;21482;-69
2021/05/01 17:29:54;;;;;;;10.02;6.70;;;;;;;13.54;33.65;100019.91;10271140;28;20232;-70
2021/05/01 17:34:55;;;;;;;8.40;6.25;;;;;;;13.64;33.70;100026.09;10272069;28;20609;-70
2021/05/01 17:39:57;;;;;;;7.97;5.82;;;;;;;13.42;33.92;100024.69;10273733;28;20244;-70
2021/05/01 17:45:00;;;;;;;9.02;6.72;;;;;;;13.53;33.97;100031.72;10271442;28;20232;-70
2021/05/01 17:50:04;;;;;;;9.10;6.20;;;;;;;13.13;33.50;100020.25;10272168;28;20267;-70
2021/05/01 17:55:09;;;;;;;8.57;6.07;;;;;;;13.35;34.22;100021.69;10271333;28;20235;-70
2021/05/01 18:00:16;;;;;;;10.05;6.28;;;;;;;12.85;35.40;100029.34;10272016;28;20240;-70
2021/05/01 18:05:20;;;;;;;8.77;5.95;;;;;;;12.87;36.46;100038.97;10271981;28;20701;-70
2021/05/01 18:10:21;;;;;;;11.32;5.47;;;;;;;12.67;36.58;100046.28;10271779;28;20235;-70
2021/05/01 18:15:26;;;;;;;8.90;6.70;;;;;;;12.32;39.10;100044.22;10288305;28;20235;-70
2021/05/01 18:20:28;;;;;;;7.63;6.25;;;;;;;12.17;39.38;100047.28;10312649;28;20241;-70
2021/05/01 18:25:30;;;;;;;7.93;6.32;;;;;;;12.04;40.59;100046.75;10312160;28;20243;-70
2021/05/01 18:30:34;;;;;;;7.53;6.20;;;;;;;11.60;37.64;100058.88;10280859;28;20239;-70
2021/05/01 18:35:35;;;;;;;12.60;6.88;;;;;;;11.34;39.78;100059.41;10242364;28;20240;-70
2021/05/01 18:40:37;;;;;;;11.15;6.70;;;;;;;11.17;40.32;100044.78;10231698;28;20745;-70
2021/05/01 18:45:40;;;;;;;8.18;6.25;;;;;;;10.95;39.18;100061.06;10231636;28;20228;-70
2021/05/01 18:50:42;;;;;;;9.50;6.10;;;;;;;10.97;41.38;100059.97;10230713;28;20251;-70
2021/05/01 18:55:45;;;;;;;9.88;6.38;;;;;;;10.90;41.71;100064.16;10230337;28;20252;-70
2021/05/01 19:00:47;;;;;;;9.27;6.07;;;;;;;10.81;42.13;100054.22;10245288;28;20621;-70
2021/05/01 19:05:49;;;;;;;10.70;6.72;;;;;;;10.74;42.99;100061.94;10230585;28;20604;-70
2021/05/01 19:10:52;;;;;;;8.50;6.15;;;;;;;10.54;42.13;100069.06;10231849;28;20270;-70
2021/05/01 19:15:55;;;;;;;9.65;7.10;;;;;;;10.48;42.42;100079.47;10271452;28;21380;-70
2021/05/01 19:20:58;;;;;;;10.32;7.15;;;;;;;10.34;42.64;100081.50;10310810;28;20234;-71
2021/05/01 19:26:00;;;;;;;13.30;7.32;;;;;;;10.19;42.36;100081.94;10248969;28;20606;-71
2021/05/01 19:31:02;;;;;;;13.82;8.63;;;;;;;10.00;42.88;100088.00;10249415;28;20244;-71
2021/05/01 19:36:06;;;;;;;12.10;7.88;;;;;;;9.90;43.38;100087.91;10230675;28;20240;-71
2021/05/01 19:41:08;;;;;;;13.07;8.65;;;;;;;9.92;43.05;100091.31;10230798;28;20898;-71
2021/05/01 19:46:14;;;;;;;16.02;9.52;;;;;;;9.94;43.15;100098.25;10227504;28;21389;-71
2021/05/01 19:51:17;;;;;;;11.57;7.93;;;;;;;9.84;43.46;100102.63;10227693;28;20232;-71
2021/05/01 19:56:19;;;;;;;14.40;7.97;;;;;;;9.74;43.58;100115.13;10237710;28;20725;-71
2021/05/01 20:01:22;;;;;;;11.95;7.80;;;;;;;9.62;43.95;100113.44;10270081;28;20238;-72
2021/05/01 20:06:24;;;;;;;12.27;8.15;;;;;;;9.52;44.69;100121.38;10267000;28;20247;-71
2021/05/01 20:11:26;;;;;;;14.10;7.90;;;;;;;9.46;44.85;100119.19;10268449;28;20246;-71
2021/05/01 20:16:29;;;;;;;12.23;8.38;;;;;;;9.29;45.63;100117.84;10295637;28;20593;-71
2021/05/01 20:21:31;;;;;;;10.80;7.90;;;;;;;9.12;46.34;100123.72;10263485;28;20321;-71
2021/05/01 20:26:33;;;;;;;12.93;9.35;;;;;;;9.06;46.64;100128.59;10267113;28;20748;-71
2021/05/01 20:31:36;;;;;;;13.52;9.02;;;;;;;8.82;48.05;100120.63;10275860;28;20254;-71
2021/05/01 20:36:39;;;;;;;16.17;9.68;;;;;;;8.55;49.38;100128.97;10276435;28;20358;-71
2021/05/01 20:41:42;;;;;;;11.73;8.65;;;;;;;8.67;49.65;100131.72;10273483;28;20242;-70
2021/05/01 20:46:45;;;;;;;11.73;8.93;;;;;;;8.69;50.02;100127.91;10274795;28;20243;-71
2021/05/01 20:51:47;;;;;;;11.52;8.40;;;;;;;8.75;50.27;100126.56;10274774;28;20338;-70
2021/05/01 20:56:50;;;;;;;12.43;9.23;;;;;;;8.81;50.25;100128.81;10289917;28;20242;-71
2021/05/01 21:01:52;;;;;;;13.88;8.60;;;;;;;8.82;50.36;100135.84;10273816;28;20235;-71
2021/05/01 21:06:55;;;;;;;12.10;8.50;;;;;;;8.80;50.32;100129.75;10274574;28;20239;-71
2021/05/01 21:11:57;;;;;;;13.57;8.75;;;;;;;8.68;51.25;100130.72;10274145;28;20250;-71
2021/05/01 21:16:59;;;;;;;14.23;9.48;;;;;;;8.59;51.83;100127.78;10277250;28;20857;-71
2021/05/01 21:22:01;;;;;;;13.18;9.00;;;;;;;8.48;52.40;100116.19;10274662;28;20333;-71
2021/05/01 21:27:04;;;;;;;11.30;8.80;;;;;;;8.34;53.21;100119.91;10274915;28;20266;-70
2021/05/01 21:32:08;;;;;;;11.00;8.30;;;;;;;8.28;53.82;100118.53;10274259;28;20227;-71
2021/05/01 21:37:10;;;;;;;14.07;9.25;;;;;;;8.30;53.56;100129.09;10272732;28;21026;-71
2021/05/01 21:42:13;;;;;;;12.90;8.80;;;;;;;8.31;53.64;100120.97;10271463;28;20227;-71
2021/05/01 21:47:17;;;;;;;15.32;9.25;;;;;;;8.24;54.18;100126.91;10271635;28;20916;-71
2021/05/01 21:52:19;;;;;;;13.98;8.82;;;;;;;8.17;54.35;100127.38;10250060;28;20259;-71
2021/05/01 21:57:21;;;;;;;13.88;9.05;;;;;;;8.26;54.19;100119.63;10232458;28;20251;-71
2021/05/01 22:02:24;;;;;;;12.63;8.85;;;;;;;8.26;53.87;100116.94;10232078;28;20259;-71
2021/05/01 22:07:26;;;;;;;13.32;8.90;;;;;;;8.16;54.11;100114.94;10231950;28;20925;-71
2021/05/01 22:12:27;;;;;;;15.45;9.07;;;;;;;8.07;54.30;100106.78;10230728;28;20236;-71
2021/05/01 22:17:30;;;;;;;10.82;8.20;;;;;;;8.01;54.58;100108.09;10298839;28;20239;-71
2021/05/01 22:22:38;;;;;;;16.15;8.73;;;;;;;7.97;54.52;100103.91;10309679;28;20235;-71
2021/05/01 22:27:43;;;;;;;11.68;8.55;;;;;;;7.89;54.83;100101.81;10309816;28;20247;-71
2021/05/01 22:32:45;;;;;;;15.82;9.15;;;;;;;7.79;55.30;100110.63;10312510;28;20239;-71
2021/05/01 22:37:47;;;;;;;14.00;9.15;;;;;;;7.66;55.85;100111.53;10310259;28;20239;-70
2021/05/01 22:42:49;;;;;;;15.73;9.68;;;;;;;7.63;56.05;100111.75;10312236;28;20644;-71
2021/05/01 22:47:52;;;;;;;12.98;8.88;;;;;;;7.66;56.11;100106.19;10312570;28;20264;-71
2021/05/01 22:52:54;;;;;;;16.23;9.52;;;;;;;7.70;56.17;100112.16;10310174;28;21426;-71
2021/05/01 22:57:58;;;;;;;14.30;8.88;;;;;;;7.64;56.06;100113.47;10308651;28;20243;-70
2021/05/01 23:03:01;;;;;;;14.68;9.40;;;;;;;7.55;56.45;100111.47;10309419;28;20235;-70